sensor_id;sensor_type;location;lat;lon;timestamp;temperature;humidity
19970;DHT22;10146;47.754;9.566;2024-02-15T00:00:12;7.50;99.90
19970;DHT22;10146;47.754;9.566;2024-02-15T00:02:38;7.40;99.90
19970;DHT22;10146;47.754;9.566;2024-02-15T00:05:04;7.30;99.90
19970;DHT22;10146;47.754;9.566;2024-02-15T00:07:30;7.20;99.90
19970;DHT22;10146;47.754;9.566;2024-02-15T00:09:55;7.20;99.90
19970;DHT22;10146;47.754;9.566;2024-02-15T00:12:21;7.20;99.90
19970;DHT22;10146;47.754;9.566;2024-02-15T00:14:47;7.10;99.90
19970;DHT22;10146;47.754;9.566;2024-02-15T00:17:12;7.10;99.90
19970;DHT22;10146;47.754;9.566;2024-02-15T00:19:38;7.00;99.90
19970;DHT22;10146;47.754;9.566;2024-02-15T00:22:05;6.90;99.90
19970;DHT22;10146;47.754;9.566;2024-02-15T00:24:31;6.90;99.90
19970;DHT22;10146;47.754;9.566;2024-02-15T00:26:57;6.80;99.90
19970;DHT22;10146;47.754;9.566;2024-02-15T00:29:23;6.80;99.90
19970;DHT22;10146;47.754;9.566;2024-02-15T00:31:50;6.80;99.90
19970;DHT22;10146;47.754;9.566;2024-02-15T00:34:15;6.80;99.90
19970;DHT22;10146;47.754;9.566;2024-02-15T00:36:44;6.70;99.90
19970;DHT22;10146;47.754;9.566;2024-02-15T00:39:11;6.80;99.90
19970;DHT22;10146;47.754;9.566;2024-02-15T00:41:37;6.70;99.90
19970;DHT22;10146;47.754;9.566;2024-02-15T00:44:08;6.70;99.90
19970;DHT22;10146;47.754;9.566;2024-02-15T00:46:34;6.70;99.90
19970;DHT22;10146;47.754;9.566;2024-02-15T00:49:00;6.60;99.90
19970;DHT22;10146;47.754;9.566;2024-02-15T00:51:25;6.60;99.90
19970;DHT22;10146;47.754;9.566;2024-02-15T00:53:51;6.40;99.90
19970;DHT22;10146;47.754;9.566;2024-02-15T00:56:16;6.50;99.90
19970;DHT22;10146;47.754;9.566;2024-02-15T00:58:43;6.40;99.90
19970;DHT22;10146;47.754;9.566;2024-02-15T01:01:09;6.40;99.90
19970;DHT22;10146;47.754;9.566;2024-02-15T01:03:36;6.40;99.90
19970;DHT22;10146;47.754;9.566;2024-02-15T01:06:02;6.40;99.90
19970;DHT22;10146;47.754;9.566;2024-02-15T01:08:27;6.40;99.90
19970;DHT22;10146;47.754;9.566;2024-02-15T01:10:53;6.30;99.90
19970;DHT22;10146;47.754;9.566;2024-02-15T01:13:19;6.20;99.90
19970;DHT22;10146;47.754;9.566;2024-02-15T01:15:45;6.20;99.90
19970;DHT22;10146;47.754;9.566;2024-02-15T01:18:11;6.20;99.90
19970;DHT22;10146;47.754;9.566;2024-02-15T01:20:37;6.20;99.90
19970;DHT22;10146;47.754;9.566;2024-02-15T01:23:03;6.10;99.90
19970;DHT22;10146;47.754;9.566;2024-02-15T01:25:30;6.10;99.90
19970;DHT22;10146;47.754;9.566;2024-02-15T01:27:55;6.00;99.90
19970;DHT22;10146;47.754;9.566;2024-02-15T01:30:21;5.90;99.90
19970;DHT22;10146;47.754;9.566;2024-02-15T01:32:47;5.90;99.90
19970;DHT22;10146;47.754;9.566;2024-02-15T01:35:13;5.80;99.90
19970;DHT22;10146;47.754;9.566;2024-02-15T01:37:38;5.70;99.90
19970;DHT22;10146;47.754;9.566;2024-02-15T01:40:05;5.70;99.90
19970;DHT22;10146;47.754;9.566;2024-02-15T01:42:32;5.60;99.90
19970;DHT22;10146;47.754;9.566;2024-02-15T01:44:57;5.50;99.90
19970;DHT22;10146;47.754;9.566;2024-02-15T01:47:23;5.60;99.90
19970;DHT22;10146;47.754;9.566;2024-02-15T01:49:50;5.60;99.90
19970;DHT22;10146;47.754;9.566;2024-02-15T01:52:16;5.60;99.90
19970;DHT22;10146;47.754;9.566;2024-02-15T01:54:43;5.60;99.90
19970;DHT22;10146;47.754;9.566;2024-02-15T01:57:08;5.60;99.90
19970;DHT22;10146;47.754;9.566;2024-02-15T01:59:34;5.50;99.90
19970;DHT22;10146;47.754;9.566;2024-02-15T02:02:02;5.50;99.90
19970;DHT22;10146;47.754;9.566;2024-02-15T02:04:29;5.40;99.90
19970;DHT22;10146;47.754;9.566;2024-02-15T02:06:57;5.30;99.90
19970;DHT22;10146;47.754;9.566;2024-02-15T02:09:24;5.20;99.90
19970;DHT22;10146;47.754;9.566;2024-02-15T02:11:50;5.20;99.90
19970;DHT22;10146;47.754;9.566;2024-02-15T02:14:16;5.20;99.90
19970;DHT22;10146;47.754;9.566;2024-02-15T02:16:42;5.10;99.90
19970;DHT22;10146;47.754;9.566;2024-02-15T02:19:07;5.10;99.90
19970;DHT22;10146;47.754;9.566;2024-02-15T02:21:35;5.20;99.90
19970;DHT22;10146;47.754;9.566;2024-02-15T02:24:03;5.20;99.90
19970;DHT22;10146;47.754;9.566;2024-02-15T02:26:34;5.20;99.90
19970;DHT22;10146;47.754;9.566;2024-02-15T02:29:02;5.20;99.90
19970;DHT22;10146;47.754;9.566;2024-02-15T02:31:33;5.10;99.90
19970;DHT22;10146;47.754;9.566;2024-02-15T02:34:00;5.10;99.90
19970;DHT22;10146;47.754;9.566;2024-02-15T02:36:26;5.10;99.90
19970;DHT22;10146;47.754;9.566;2024-02-15T02:38:52;5.10;99.90
19970;DHT22;10146;47.754;9.566;2024-02-15T02:41:18;5.00;99.90
19970;DHT22;10146;47.754;9.566;2024-02-15T02:43:48;5.00;99.90
19970;DHT22;10146;47.754;9.566;2024-02-15T02:46:14;5.00;99.90
19970;DHT22;10146;47.754;9.566;2024-02-15T02:48:40;5.00;99.90
19970;DHT22;10146;47.754;9.566;2024-02-15T02:51:06;5.00;99.90
19970;DHT22;10146;47.754;9.566;2024-02-15T02:53:32;4.90;99.90
19970;DHT22;10146;47.754;9.566;2024-02-15T02:55:58;4.90;99.90
19970;DHT22;10146;47.754;9.566;2024-02-15T02:58:24;4.90;99.90
19970;DHT22;10146;47.754;9.566;2024-02-15T03:00:50;4.80;99.90
19970;DHT22;10146;47.754;9.566;2024-02-15T03:03:17;4.70;99.90
19970;DHT22;10146;47.754;9.566;2024-02-15T03:05:43;4.70;99.90
19970;DHT22;10146;47.754;9.566;2024-02-15T03:08:11;4.70;99.90
19970;DHT22;10146;47.754;9.566;2024-02-15T03:10:37;4.70;99.90
19970;DHT22;10146;47.754;9.566;2024-02-15T03:13:03;4.70;99.90
19970;DHT22;10146;47.754;9.566;2024-02-15T03:15:30;4.70;99.90
19970;DHT22;10146;47.754;9.566;2024-02-15T03:17:55;4.60;99.90
19970;DHT22;10146;47.754;9.566;2024-02-15T03:20:21;4.60;99.90
19970;DHT22;10146;47.754;9.566;2024-02-15T03:22:57;4.50;99.90
19970;DHT22;10146;47.754;9.566;2024-02-15T03:25:24;4.40;99.90
19970;DHT22;10146;47.754;9.566;2024-02-15T03:27:53;4.40;99.90
19970;DHT22;10146;47.754;9.566;2024-02-15T03:30:19;4.40;99.90
19970;DHT22;10146;47.754;9.566;2024-02-15T03:32:46;4.30;99.90
19970;DHT22;10146;47.754;9.566;2024-02-15T03:35:17;4.30;99.90
19970;DHT22;10146;47.754;9.566;2024-02-15T03:37:42;4.20;99.90
19970;DHT22;10146;47.754;9.566;2024-02-15T03:40:08;4.30;99.90
19970;DHT22;10146;47.754;9.566;2024-02-15T03:42:35;4.20;99.90
19970;DHT22;10146;47.754;9.566;2024-02-15T03:45:04;4.20;99.90
19970;DHT22;10146;47.754;9.566;2024-02-15T03:47:32;4.20;99.90
19970;DHT22;10146;47.754;9.566;2024-02-15T03:49:59;4.20;99.90
19970;DHT22;10146;47.754;9.566;2024-02-15T03:52:24;4.20;99.90
19970;DHT22;10146;47.754;9.566;2024-02-15T03:54:50;4.20;99.90
19970;DHT22;10146;47.754;9.566;2024-02-15T03:57:18;4.20;99.90
19970;DHT22;10146;47.754;9.566;2024-02-15T03:59:46;4.20;99.90
19970;DHT22;10146;47.754;9.566;2024-02-15T04:02:16;4.10;99.90
19970;DHT22;10146;47.754;9.566;2024-02-15T04:04:41;4.00;99.90
19970;DHT22;10146;47.754;9.566;2024-02-15T04:07:08;4.00;99.90
19970;DHT22;10146;47.754;9.566;2024-02-15T04:09:35;3.90;99.90
19970;DHT22;10146;47.754;9.566;2024-02-15T04:12:01;3.90;99.90
19970;DHT22;10146;47.754;9.566;2024-02-15T04:14:27;4.00;99.90
19970;DHT22;10146;47.754;9.566;2024-02-15T04:16:53;4.00;99.90
19970;DHT22;10146;47.754;9.566;2024-02-15T04:19:19;4.00;99.90
19970;DHT22;10146;47.754;9.566;2024-02-15T04:21:45;4.00;99.90
19970;DHT22;10146;47.754;9.566;2024-02-15T04:24:11;3.90;99.90
19970;DHT22;10146;47.754;9.566;2024-02-15T04:26:38;3.90;99.90
19970;DHT22;10146;47.754;9.566;2024-02-15T04:29:04;3.90;99.90
19970;DHT22;10146;47.754;9.566;2024-02-15T04:31:29;3.90;99.90
19970;DHT22;10146;47.754;9.566;2024-02-15T04:33:55;3.80;99.90
19970;DHT22;10146;47.754;9.566;2024-02-15T04:36:22;3.80;99.90
19970;DHT22;10146;47.754;9.566;2024-02-15T04:38:52;3.70;99.90
19970;DHT22;10146;47.754;9.566;2024-02-15T04:41:18;3.70;99.90
19970;DHT22;10146;47.754;9.566;2024-02-15T04:43:51;3.70;99.90
19970;DHT22;10146;47.754;9.566;2024-02-15T04:46:18;3.80;99.90
19970;DHT22;10146;47.754;9.566;2024-02-15T04:48:47;3.70;99.90
19970;DHT22;10146;47.754;9.566;2024-02-15T04:51:15;3.70;99.90
19970;DHT22;10146;47.754;9.566;2024-02-15T04:53:42;3.70;99.90
19970;DHT22;10146;47.754;9.566;2024-02-15T04:56:08;3.70;99.90
19970;DHT22;10146;47.754;9.566;2024-02-15T04:58:39;3.60;99.90
19970;DHT22;10146;47.754;9.566;2024-02-15T05:01:16;3.50;99.90
19970;DHT22;10146;47.754;9.566;2024-02-15T05:03:42;3.50;99.90
19970;DHT22;10146;47.754;9.566;2024-02-15T05:06:08;3.50;99.90
19970;DHT22;10146;47.754;9.566;2024-02-15T05:08:35;3.50;99.90
19970;DHT22;10146;47.754;9.566;2024-02-15T05:11:03;3.40;99.90
19970;DHT22;10146;47.754;9.566;2024-02-15T05:13:30;3.50;99.90
19970;DHT22;10146;47.754;9.566;2024-02-15T05:15:56;3.50;99.90
19970;DHT22;10146;47.754;9.566;2024-02-15T05:18:22;3.40;99.90
19970;DHT22;10146;47.754;9.566;2024-02-15T05:20:47;3.40;99.90
19970;DHT22;10146;47.754;9.566;2024-02-15T05:23:13;3.40;99.90
19970;DHT22;10146;47.754;9.566;2024-02-15T05:25:40;3.30;99.90
19970;DHT22;10146;47.754;9.566;2024-02-15T05:28:06;3.30;99.90
19970;DHT22;10146;47.754;9.566;2024-02-15T05:30:33;3.30;99.90
19970;DHT22;10146;47.754;9.566;2024-02-15T05:32:59;3.40;99.90
19970;DHT22;10146;47.754;9.566;2024-02-15T05:35:26;3.40;99.90
19970;DHT22;10146;47.754;9.566;2024-02-15T05:37:53;3.40;99.90
19970;DHT22;10146;47.754;9.566;2024-02-15T05:40:19;3.40;99.90
19970;DHT22;10146;47.754;9.566;2024-02-15T05:42:45;3.40;99.90
19970;DHT22;10146;47.754;9.566;2024-02-15T05:47:51;3.20;99.90
19970;DHT22;10146;47.754;9.566;2024-02-15T05:50:17;3.30;99.90
19970;DHT22;10146;47.754;9.566;2024-02-15T05:52:46;3.30;99.90
19970;DHT22;10146;47.754;9.566;2024-02-15T05:55:12;3.20;99.90
19970;DHT22;10146;47.754;9.566;2024-02-15T05:57:39;3.20;99.90
19970;DHT22;10146;47.754;9.566;2024-02-15T06:00:05;3.20;99.90
19970;DHT22;10146;47.754;9.566;2024-02-15T06:02:32;3.20;99.90
19970;DHT22;10146;47.754;9.566;2024-02-15T06:04:58;3.10;99.90
19970;DHT22;10146;47.754;9.566;2024-02-15T06:07:27;3.10;99.90
19970;DHT22;10146;47.754;9.566;2024-02-15T06:09:53;3.10;99.90
19970;DHT22;10146;47.754;9.566;2024-02-15T06:12:19;3.10;99.90
19970;DHT22;10146;47.754;9.566;2024-02-15T06:14:45;3.10;99.90
19970;DHT22;10146;47.754;9.566;2024-02-15T06:17:11;3.10;99.90
19970;DHT22;10146;47.754;9.566;2024-02-15T06:19:37;3.10;99.90
19970;DHT22;10146;47.754;9.566;2024-02-15T06:22:03;3.10;99.90
19970;DHT22;10146;47.754;9.566;2024-02-15T06:24:29;3.00;99.90
19970;DHT22;10146;47.754;9.566;2024-02-15T06:26:55;2.80;99.90
19970;DHT22;10146;47.754;9.566;2024-02-15T06:29:25;2.90;99.90
19970;DHT22;10146;47.754;9.566;2024-02-15T06:32:10;3.00;99.90
19970;DHT22;10146;47.754;9.566;2024-02-15T06:34:53;3.00;99.90
19970;DHT22;10146;47.754;9.566;2024-02-15T06:37:38;3.00;99.90
19970;DHT22;10146;47.754;9.566;2024-02-15T06:40:23;2.90;99.90
19970;DHT22;10146;47.754;9.566;2024-02-15T06:42:49;2.90;99.90
19970;DHT22;10146;47.754;9.566;2024-02-15T06:45:15;2.90;99.90
19970;DHT22;10146;47.754;9.566;2024-02-15T06:47:42;2.90;99.90
19970;DHT22;10146;47.754;9.566;2024-02-15T06:50:12;2.90;99.90
19970;DHT22;10146;47.754;9.566;2024-02-15T06:52:39;2.90;99.90
19970;DHT22;10146;47.754;9.566;2024-02-15T06:55:07;2.90;99.90
19970;DHT22;10146;47.754;9.566;2024-02-15T06:57:34;3.00;99.90
19970;DHT22;10146;47.754;9.566;2024-02-15T07:00:03;3.00;99.90
19970;DHT22;10146;47.754;9.566;2024-02-15T07:02:35;3.00;99.90
19970;DHT22;10146;47.754;9.566;2024-02-15T07:05:01;3.00;99.90
19970;DHT22;10146;47.754;9.566;2024-02-15T07:07:29;3.00;99.90
19970;DHT22;10146;47.754;9.566;2024-02-15T07:09:54;3.00;99.90
19970;DHT22;10146;47.754;9.566;2024-02-15T07:12:20;3.10;99.90
19970;DHT22;10146;47.754;9.566;2024-02-15T07:14:47;3.00;99.90
19970;DHT22;10146;47.754;9.566;2024-02-15T07:17:13;3.00;99.90
19970;DHT22;10146;47.754;9.566;2024-02-15T07:19:44;3.00;99.90
19970;DHT22;10146;47.754;9.566;2024-02-15T07:22:10;3.10;99.90
19970;DHT22;10146;47.754;9.566;2024-02-15T07:24:37;3.10;99.90
19970;DHT22;10146;47.754;9.566;2024-02-15T07:27:05;3.20;99.90
19970;DHT22;10146;47.754;9.566;2024-02-15T07:29:30;3.20;99.90
19970;DHT22;10146;47.754;9.566;2024-02-15T07:32:02;3.30;99.90
19970;DHT22;10146;47.754;9.566;2024-02-15T07:34:30;3.40;99.90
19970;DHT22;10146;47.754;9.566;2024-02-15T07:36:56;3.50;99.90
19970;DHT22;10146;47.754;9.566;2024-02-15T07:39:23;3.60;99.90
19970;DHT22;10146;47.754;9.566;2024-02-15T07:41:51;3.70;99.90
19970;DHT22;10146;47.754;9.566;2024-02-15T07:44:16;3.80;99.90
19970;DHT22;10146;47.754;9.566;2024-02-15T07:46:43;3.90;99.90
19970;DHT22;10146;47.754;9.566;2024-02-15T07:49:09;3.90;99.90
19970;DHT22;10146;47.754;9.566;2024-02-15T07:51:34;4.00;99.90
19970;DHT22;10146;47.754;9.566;2024-02-15T07:54:01;4.10;99.90
19970;DHT22;10146;47.754;9.566;2024-02-15T07:56:27;4.30;99.90
19970;DHT22;10146;47.754;9.566;2024-02-15T07:58:52;4.40;99.90
19970;DHT22;10146;47.754;9.566;2024-02-15T08:01:18;4.50;99.90
19970;DHT22;10146;47.754;9.566;2024-02-15T08:03:46;4.60;99.90
19970;DHT22;10146;47.754;9.566;2024-02-15T08:06:16;4.70;99.90
19970;DHT22;10146;47.754;9.566;2024-02-15T08:08:43;4.80;99.90
19970;DHT22;10146;47.754;9.566;2024-02-15T08:11:12;4.90;99.90
19970;DHT22;10146;47.754;9.566;2024-02-15T08:13:47;5.00;99.90
19970;DHT22;10146;47.754;9.566;2024-02-15T08:16:19;5.10;99.90
19970;DHT22;10146;47.754;9.566;2024-02-15T08:18:46;5.20;99.90
19970;DHT22;10146;47.754;9.566;2024-02-15T08:21:12;5.30;99.90
19970;DHT22;10146;47.754;9.566;2024-02-15T08:23:37;5.40;99.90
19970;DHT22;10146;47.754;9.566;2024-02-15T08:26:04;5.50;99.90
19970;DHT22;10146;47.754;9.566;2024-02-15T08:28:29;5.50;99.90
19970;DHT22;10146;47.754;9.566;2024-02-15T08:30:56;5.60;99.90
19970;DHT22;10146;47.754;9.566;2024-02-15T08:33:25;5.70;99.90
19970;DHT22;10146;47.754;9.566;2024-02-15T08:35:54;5.80;99.90
19970;DHT22;10146;47.754;9.566;2024-02-15T08:38:23;5.90;99.90
19970;DHT22;10146;47.754;9.566;2024-02-15T08:40:49;5.90;99.90
19970;DHT22;10146;47.754;9.566;2024-02-15T08:43:15;6.00;99.90
19970;DHT22;10146;47.754;9.566;2024-02-15T08:45:41;6.10;99.90
19970;DHT22;10146;47.754;9.566;2024-02-15T08:48:07;6.20;99.90
19970;DHT22;10146;47.754;9.566;2024-02-15T08:50:33;6.30;99.90
19970;DHT22;10146;47.754;9.566;2024-02-15T08:52:59;6.40;99.90
19970;DHT22;10146;47.754;9.566;2024-02-15T08:55:24;6.50;99.90
19970;DHT22;10146;47.754;9.566;2024-02-15T08:57:53;6.70;99.90
19970;DHT22;10146;47.754;9.566;2024-02-15T09:00:19;6.80;99.90
19970;DHT22;10146;47.754;9.566;2024-02-15T09:02:46;6.80;99.90
19970;DHT22;10146;47.754;9.566;2024-02-15T09:05:13;6.90;99.90
19970;DHT22;10146;47.754;9.566;2024-02-15T09:07:43;7.10;99.90
19970;DHT22;10146;47.754;9.566;2024-02-15T09:10:13;7.20;99.90
19970;DHT22;10146;47.754;9.566;2024-02-15T09:12:39;7.30;99.90
19970;DHT22;10146;47.754;9.566;2024-02-15T09:15:07;7.40;99.90
19970;DHT22;10146;47.754;9.566;2024-02-15T09:17:34;7.50;99.90
19970;DHT22;10146;47.754;9.566;2024-02-15T09:20:08;7.60;99.90
19970;DHT22;10146;47.754;9.566;2024-02-15T09:22:34;7.70;99.90
19970;DHT22;10146;47.754;9.566;2024-02-15T09:25:02;7.70;99.90
19970;DHT22;10146;47.754;9.566;2024-02-15T09:27:28;7.80;99.90
19970;DHT22;10146;47.754;9.566;2024-02-15T09:29:53;7.90;99.90
19970;DHT22;10146;47.754;9.566;2024-02-15T09:32:21;8.00;99.90
19970;DHT22;10146;47.754;9.566;2024-02-15T09:34:48;8.10;99.90
19970;DHT22;10146;47.754;9.566;2024-02-15T09:37:13;8.20;99.90
19970;DHT22;10146;47.754;9.566;2024-02-15T09:39:39;8.20;99.90
19970;DHT22;10146;47.754;9.566;2024-02-15T09:42:05;8.30;99.90
19970;DHT22;10146;47.754;9.566;2024-02-15T09:44:31;8.40;99.90
19970;DHT22;10146;47.754;9.566;2024-02-15T09:47:04;8.60;99.90
19970;DHT22;10146;47.754;9.566;2024-02-15T09:49:38;8.60;99.90
19970;DHT22;10146;47.754;9.566;2024-02-15T09:52:07;8.70;99.90
19970;DHT22;10146;47.754;9.566;2024-02-15T09:54:40;8.80;99.90
19970;DHT22;10146;47.754;9.566;2024-02-15T09:57:08;8.90;99.90
19970;DHT22;10146;47.754;9.566;2024-02-15T09:59:35;9.00;99.90
19970;DHT22;10146;47.754;9.566;2024-02-15T10:02:01;9.00;99.90
19970;DHT22;10146;47.754;9.566;2024-02-15T10:04:27;9.10;99.90
19970;DHT22;10146;47.754;9.566;2024-02-15T10:06:53;9.20;99.90
19970;DHT22;10146;47.754;9.566;2024-02-15T10:09:29;9.30;99.90
19970;DHT22;10146;47.754;9.566;2024-02-15T10:12:01;9.40;99.90
19970;DHT22;10146;47.754;9.566;2024-02-15T10:14:29;9.50;99.90
19970;DHT22;10146;47.754;9.566;2024-02-15T10:16:56;9.60;99.90
19970;DHT22;10146;47.754;9.566;2024-02-15T10:19:22;9.80;99.90
19970;DHT22;10146;47.754;9.566;2024-02-15T10:21:52;10.00;99.90
19970;DHT22;10146;47.754;9.566;2024-02-15T10:24:21;10.10;99.90
19970;DHT22;10146;47.754;9.566;2024-02-15T10:26:49;10.20;99.90
19970;DHT22;10146;47.754;9.566;2024-02-15T10:29:14;10.20;99.90
19970;DHT22;10146;47.754;9.566;2024-02-15T10:31:59;10.30;99.90
19970;DHT22;10146;47.754;9.566;2024-02-15T10:34:25;10.30;99.90
19970;DHT22;10146;47.754;9.566;2024-02-15T10:36:54;10.50;99.90
19970;DHT22;10146;47.754;9.566;2024-02-15T10:39:22;10.60;99.90
19970;DHT22;10146;47.754;9.566;2024-02-15T10:41:52;10.70;99.90
19970;DHT22;10146;47.754;9.566;2024-02-15T10:44:21;10.80;99.90
19970;DHT22;10146;47.754;9.566;2024-02-15T10:46:51;10.90;99.90
19970;DHT22;10146;47.754;9.566;2024-02-15T10:49:23;11.10;99.90
19970;DHT22;10146;47.754;9.566;2024-02-15T10:51:58;11.30;99.90
19970;DHT22;10146;47.754;9.566;2024-02-15T10:57:05;11.70;99.90
19970;DHT22;10146;47.754;9.566;2024-02-15T10:59:35;12.00;99.90
19970;DHT22;10146;47.754;9.566;2024-02-15T11:02:26;12.20;99.90
19970;DHT22;10146;47.754;9.566;2024-02-15T11:04:54;12.40;99.90
19970;DHT22;10146;47.754;9.566;2024-02-15T11:07:26;12.60;99.90
19970;DHT22;10146;47.754;9.566;2024-02-15T11:09:54;12.60;99.90
19970;DHT22;10146;47.754;9.566;2024-02-15T11:12:24;12.70;99.90
19970;DHT22;10146;47.754;9.566;2024-02-15T11:14:54;12.80;99.90
19970;DHT22;10146;47.754;9.566;2024-02-15T11:20:47;12.90;99.90
19970;DHT22;10146;47.754;9.566;2024-02-15T11:23:23;13.00;99.90
19970;DHT22;10146;47.754;9.566;2024-02-15T11:25:49;13.00;99.90
19970;DHT22;10146;47.754;9.566;2024-02-15T11:30:50;13.10;99.90
19970;DHT22;10146;47.754;9.566;2024-02-15T11:33:36;13.20;99.90
19970;DHT22;10146;47.754;9.566;2024-02-15T11:36:30;13.30;99.90
19970;DHT22;10146;47.754;9.566;2024-02-15T11:38:56;13.30;99.90
19970;DHT22;10146;47.754;9.566;2024-02-15T11:41:22;13.30;99.90
19970;DHT22;10146;47.754;9.566;2024-02-15T11:43:50;13.30;99.90
19970;DHT22;10146;47.754;9.566;2024-02-15T11:46:23;13.30;99.90
19970;DHT22;10146;47.754;9.566;2024-02-15T11:48:51;13.30;99.90
19970;DHT22;10146;47.754;9.566;2024-02-15T11:51:32;13.30;99.90
19970;DHT22;10146;47.754;9.566;2024-02-15T11:54:03;13.50;99.90
19970;DHT22;10146;47.754;9.566;2024-02-15T11:56:53;13.50;99.90
19970;DHT22;10146;47.754;9.566;2024-02-15T11:59:20;13.60;99.90
19970;DHT22;10146;47.754;9.566;2024-02-15T12:01:57;13.60;99.90
19970;DHT22;10146;47.754;9.566;2024-02-15T12:04:42;13.60;99.90
19970;DHT22;10146;47.754;9.566;2024-02-15T12:07:27;13.50;99.90
19970;DHT22;10146;47.754;9.566;2024-02-15T12:10:18;13.60;99.90
19970;DHT22;10146;47.754;9.566;2024-02-15T12:13:03;13.70;99.90
19970;DHT22;10146;47.754;9.566;2024-02-15T12:15:57;13.70;99.90
19970;DHT22;10146;47.754;9.566;2024-02-15T12:18:42;13.80;99.90
19970;DHT22;10146;47.754;9.566;2024-02-15T12:21:09;13.90;99.90
19970;DHT22;10146;47.754;9.566;2024-02-15T12:23:38;13.90;99.90
19970;DHT22;10146;47.754;9.566;2024-02-15T12:26:04;14.00;99.90
19970;DHT22;10146;47.754;9.566;2024-02-15T12:28:30;14.10;99.90
19970;DHT22;10146;47.754;9.566;2024-02-15T12:30:56;14.10;99.90
19970;DHT22;10146;47.754;9.566;2024-02-15T12:33:22;14.30;99.90
19970;DHT22;10146;47.754;9.566;2024-02-15T12:35:49;14.40;99.60
19970;DHT22;10146;47.754;9.566;2024-02-15T12:38:15;14.40;99.70
19970;DHT22;10146;47.754;9.566;2024-02-15T12:40:42;14.40;99.40
19970;DHT22;10146;47.754;9.566;2024-02-15T12:43:08;14.50;99.00
19970;DHT22;10146;47.754;9.566;2024-02-15T12:45:42;14.60;99.00
19970;DHT22;10146;47.754;9.566;2024-02-15T12:48:08;14.70;99.00
19970;DHT22;10146;47.754;9.566;2024-02-15T12:50:34;14.80;99.60
19970;DHT22;10146;47.754;9.566;2024-02-15T12:53:00;14.90;99.00
19970;DHT22;10146;47.754;9.566;2024-02-15T12:55:29;14.90;97.80
19970;DHT22;10146;47.754;9.566;2024-02-15T12:58:06;15.00;97.80
19970;DHT22;10146;47.754;9.566;2024-02-15T13:00:36;14.90;97.50
19970;DHT22;10146;47.754;9.566;2024-02-15T13:03:05;15.00;97.40
19970;DHT22;10146;47.754;9.566;2024-02-15T13:05:34;15.00;97.30
19970;DHT22;10146;47.754;9.566;2024-02-15T13:07:59;15.10;97.10
19970;DHT22;10146;47.754;9.566;2024-02-15T13:10:29;15.10;96.70
19970;DHT22;10146;47.754;9.566;2024-02-15T13:12:55;15.10;96.20
19970;DHT22;10146;47.754;9.566;2024-02-15T13:15:21;15.20;96.10
19970;DHT22;10146;47.754;9.566;2024-02-15T13:17:53;15.20;95.90
19970;DHT22;10146;47.754;9.566;2024-02-15T13:20:22;15.30;96.40
19970;DHT22;10146;47.754;9.566;2024-02-15T13:22:57;15.30;97.00
19970;DHT22;10146;47.754;9.566;2024-02-15T13:25:25;15.30;97.40
19970;DHT22;10146;47.754;9.566;2024-02-15T13:27:51;15.50;97.50
19970;DHT22;10146;47.754;9.566;2024-02-15T13:30:17;15.60;96.60
19970;DHT22;10146;47.754;9.566;2024-02-15T13:32:49;15.50;95.80
19970;DHT22;10146;47.754;9.566;2024-02-15T13:35:16;15.70;96.20
19970;DHT22;10146;47.754;9.566;2024-02-15T13:37:49;15.70;95.70
19970;DHT22;10146;47.754;9.566;2024-02-15T13:40:15;15.70;95.40
19970;DHT22;10146;47.754;9.566;2024-02-15T13:42:44;15.80;96.10
19970;DHT22;10146;47.754;9.566;2024-02-15T13:45:23;16.00;96.30
19970;DHT22;10146;47.754;9.566;2024-02-15T13:47:52;16.00;95.20
19970;DHT22;10146;47.754;9.566;2024-02-15T13:50:21;16.10;95.50
19970;DHT22;10146;47.754;9.566;2024-02-15T13:52:46;16.10;95.90
19970;DHT22;10146;47.754;9.566;2024-02-15T13:55:14;16.30;95.60
19970;DHT22;10146;47.754;9.566;2024-02-15T13:57:41;16.40;95.50
19970;DHT22;10146;47.754;9.566;2024-02-15T14:00:11;16.40;95.70
19970;DHT22;10146;47.754;9.566;2024-02-15T14:02:57;16.40;94.50
19970;DHT22;10146;47.754;9.566;2024-02-15T14:05:25;16.60;94.30
19970;DHT22;10146;47.754;9.566;2024-02-15T14:07:55;16.60;94.40
19970;DHT22;10146;47.754;9.566;2024-02-15T14:10:22;16.70;94.50
19970;DHT22;10146;47.754;9.566;2024-02-15T14:12:48;16.70;94.40
19970;DHT22;10146;47.754;9.566;2024-02-15T14:15:17;16.80;95.70
19970;DHT22;10146;47.754;9.566;2024-02-15T14:17:43;16.80;95.80
19970;DHT22;10146;47.754;9.566;2024-02-15T14:20:10;16.80;95.00
19970;DHT22;10146;47.754;9.566;2024-02-15T14:22:39;16.80;94.00
19970;DHT22;10146;47.754;9.566;2024-02-15T14:25:06;16.80;93.60
19970;DHT22;10146;47.754;9.566;2024-02-15T14:27:32;16.70;93.00
19970;DHT22;10146;47.754;9.566;2024-02-15T14:29:58;16.70;93.30
19970;DHT22;10146;47.754;9.566;2024-02-15T14:32:42;16.60;93.70
19970;DHT22;10146;47.754;9.566;2024-02-15T14:35:34;16.50;93.20
19970;DHT22;10146;47.754;9.566;2024-02-15T14:38:04;16.40;93.10
19970;DHT22;10146;47.754;9.566;2024-02-15T14:40:38;16.40;93.00
19970;DHT22;10146;47.754;9.566;2024-02-15T14:43:05;16.40;92.80
19970;DHT22;10146;47.754;9.566;2024-02-15T14:45:32;16.40;92.90
19970;DHT22;10146;47.754;9.566;2024-02-15T14:48:01;16.40;93.70
19970;DHT22;10146;47.754;9.566;2024-02-15T14:50:28;16.40;97.20
19970;DHT22;10146;47.754;9.566;2024-02-15T14:52:54;16.30;99.60
19970;DHT22;10146;47.754;9.566;2024-02-15T14:55:20;16.20;99.30
19970;DHT22;10146;47.754;9.566;2024-02-15T14:57:46;16.20;96.80
19970;DHT22;10146;47.754;9.566;2024-02-15T15:00:12;16.10;97.10
19970;DHT22;10146;47.754;9.566;2024-02-15T15:02:47;16.00;97.60
19970;DHT22;10146;47.754;9.566;2024-02-15T15:05:15;15.90;98.40
19970;DHT22;10146;47.754;9.566;2024-02-15T15:08:00;15.80;97.80
19970;DHT22;10146;47.754;9.566;2024-02-15T15:10:48;15.70;99.90
19970;DHT22;10146;47.754;9.566;2024-02-15T15:13:33;15.60;99.70
19970;DHT22;10146;47.754;9.566;2024-02-15T15:16:00;15.40;99.90
19970;DHT22;10146;47.754;9.566;2024-02-15T15:18:26;15.30;99.90
19970;DHT22;10146;47.754;9.566;2024-02-15T15:20:52;15.20;99.90
19970;DHT22;10146;47.754;9.566;2024-02-15T15:23:17;15.10;99.90
19970;DHT22;10146;47.754;9.566;2024-02-15T15:25:43;15.10;99.90
19970;DHT22;10146;47.754;9.566;2024-02-15T15:28:08;15.00;99.90
19970;DHT22;10146;47.754;9.566;2024-02-15T15:30:34;14.80;99.90
19970;DHT22;10146;47.754;9.566;2024-02-15T15:33:00;14.70;99.90
19970;DHT22;10146;47.754;9.566;2024-02-15T15:35:26;14.60;99.90
19970;DHT22;10146;47.754;9.566;2024-02-15T15:37:53;14.60;99.90
19970;DHT22;10146;47.754;9.566;2024-02-15T15:40:19;14.50;99.90
19970;DHT22;10146;47.754;9.566;2024-02-15T15:42:45;14.40;99.90
19970;DHT22;10146;47.754;9.566;2024-02-15T15:45:11;14.30;99.90
19970;DHT22;10146;47.754;9.566;2024-02-15T15:47:38;14.20;99.90
19970;DHT22;10146;47.754;9.566;2024-02-15T15:50:05;14.10;99.90
19970;DHT22;10146;47.754;9.566;2024-02-15T15:52:32;14.00;99.90
19970;DHT22;10146;47.754;9.566;2024-02-15T15:54:58;13.90;99.90
19970;DHT22;10146;47.754;9.566;2024-02-15T15:57:24;13.80;99.90